sensor_id;sensor_type;location;lat;lon;timestamp;pressure;altitude;pressure_sealevel;temperature;humidity
63715;BME280;49858;48.956;9.076;2023-08-20T00:00:23;99068.78;;;24.92;nan
63715;BME280;49858;48.956;9.076;2023-08-20T00:02:58;99071.84;;;25.81;nan
63715;BME280;49858;48.956;9.076;2023-08-20T00:05:27;99067.50;;;26.40;nan
63715;BME280;49858;48.956;9.076;2023-08-20T00:07:57;99070.72;;;26.64;nan
63715;BME280;49858;48.956;9.076;2023-08-20T00:10:24;99067.66;;;26.93;nan
63715;BME280;49858;48.956;9.076;2023-08-20T00:12:52;99067.75;;;26.20;nan
63715;BME280;49858;48.956;9.076;2023-08-20T00:15:20;99075.00;;;25.96;nan
63715;BME280;49858;48.956;9.076;2023-08-20T00:17:53;99066.16;;;25.68;nan
63715;BME280;49858;48.956;9.076;2023-08-20T00:20:24;99068.41;;;25.73;nan
63715;BME280;49858;48.956;9.076;2023-08-20T00:22:53;99074.66;;;25.14;nan
63715;BME280;49858;48.956;9.076;2023-08-20T00:25:21;99075.91;;;24.51;nan
63715;BME280;49858;48.956;9.076;2023-08-20T00:27:49;99077.31;;;23.94;nan
63715;BME280;49858;48.956;9.076;2023-08-20T00:30:17;99074.25;;;23.88;nan
63715;BME280;49858;48.956;9.076;2023-08-20T00:32:44;99072.41;;;23.98;nan
63715;BME280;49858;48.956;9.076;2023-08-20T00:35:12;99075.88;;;24.38;nan
63715;BME280;49858;48.956;9.076;2023-08-20T00:37:41;99073.22;;;25.35;nan
63715;BME280;49858;48.956;9.076;2023-08-20T00:40:11;99087.50;;;25.82;nan
63715;BME280;49858;48.956;9.076;2023-08-20T00:42:39;99081.28;;;26.25;nan
63715;BME280;49858;48.956;9.076;2023-08-20T00:45:08;99078.91;;;26.49;nan
63715;BME280;49858;48.956;9.076;2023-08-20T00:47:37;99075.22;;;26.02;nan
63715;BME280;49858;48.956;9.076;2023-08-20T00:50:06;99081.50;;;26.31;nan
63715;BME280;49858;48.956;9.076;2023-08-20T00:52:35;99074.81;;;26.63;nan
63715;BME280;49858;48.956;9.076;2023-08-20T00:55:07;99077.25;;;26.01;nan
63715;BME280;49858;48.956;9.076;2023-08-20T00:57:38;99076.09;;;25.60;nan
63715;BME280;49858;48.956;9.076;2023-08-20T01:00:08;99078.06;;;25.89;nan
63715;BME280;49858;48.956;9.076;2023-08-20T01:02:38;99080.81;;;26.40;nan
63715;BME280;49858;48.956;9.076;2023-08-20T01:05:07;99076.16;;;26.59;nan
63715;BME280;49858;48.956;9.076;2023-08-20T01:07:46;99078.78;;;26.28;nan
63715;BME280;49858;48.956;9.076;2023-08-20T01:10:24;99079.94;;;26.17;nan
63715;BME280;49858;48.956;9.076;2023-08-20T01:12:53;99074.16;;;26.46;nan
63715;BME280;49858;48.956;9.076;2023-08-20T01:15:21;99070.09;;;26.47;nan
63715;BME280;49858;48.956;9.076;2023-08-20T01:17:49;99079.50;;;25.81;nan
63715;BME280;49858;48.956;9.076;2023-08-20T01:20:18;99077.75;;;25.32;nan
63715;BME280;49858;48.956;9.076;2023-08-20T01:26:01;99082.22;;;24.71;nan
63715;BME280;49858;48.956;9.076;2023-08-20T01:28:36;99085.09;;;25.55;nan
63715;BME280;49858;48.956;9.076;2023-08-20T01:31:04;99081.63;;;26.15;nan
63715;BME280;49858;48.956;9.076;2023-08-20T01:33:32;99078.63;;;26.57;nan
63715;BME280;49858;48.956;9.076;2023-08-20T01:36:01;99081.09;;;26.67;nan
63715;BME280;49858;48.956;9.076;2023-08-20T01:38:28;99083.13;;;26.07;nan
63715;BME280;49858;48.956;9.076;2023-08-20T01:40:56;99084.22;;;26.22;nan
63715;BME280;49858;48.956;9.076;2023-08-20T01:43:24;99091.28;;;26.52;nan
63715;BME280;49858;48.956;9.076;2023-08-20T01:45:55;99089.25;;;26.53;nan
63715;BME280;49858;48.956;9.076;2023-08-20T01:48:23;99093.34;;;26.26;nan
63715;BME280;49858;48.956;9.076;2023-08-20T01:50:51;99092.66;;;25.71;nan
63715;BME280;49858;48.956;9.076;2023-08-20T01:53:19;99093.03;;;25.86;nan
63715;BME280;49858;48.956;9.076;2023-08-20T01:55:47;99090.78;;;25.93;nan
63715;BME280;49858;48.956;9.076;2023-08-20T01:58:15;99090.41;;;26.30;nan
63715;BME280;49858;48.956;9.076;2023-08-20T02:00:44;99087.16;;;26.31;nan
63715;BME280;49858;48.956;9.076;2023-08-20T02:03:14;99094.16;;;26.27;nan
63715;BME280;49858;48.956;9.076;2023-08-20T02:05:41;99094.16;;;26.01;nan
63715;BME280;49858;48.956;9.076;2023-08-20T02:08:09;99093.72;;;25.90;nan
63715;BME280;49858;48.956;9.076;2023-08-20T02:10:37;99092.00;;;26.05;nan
63715;BME280;49858;48.956;9.076;2023-08-20T02:13:05;99098.09;;;26.16;nan
63715;BME280;49858;48.956;9.076;2023-08-20T02:15:34;99098.28;;;26.35;nan
63715;BME280;49858;48.956;9.076;2023-08-20T02:18:01;99097.72;;;26.53;nan
63715;BME280;49858;48.956;9.076;2023-08-20T02:20:31;99099.28;;;26.54;nan
63715;BME280;49858;48.956;9.076;2023-08-20T02:22:59;99097.88;;;25.98;nan
63715;BME280;49858;48.956;9.076;2023-08-20T02:25:27;99094.16;;;26.01;nan
63715;BME280;49858;48.956;9.076;2023-08-20T02:27:55;99093.94;;;25.83;nan
63715;BME280;49858;48.956;9.076;2023-08-20T02:30:24;99090.88;;;26.15;nan
63715;BME280;49858;48.956;9.076;2023-08-20T02:32:52;99094.47;;;26.29;nan
63715;BME280;49858;48.956;9.076;2023-08-20T02:35:20;99093.78;;;26.37;nan
63715;BME280;49858;48.956;9.076;2023-08-20T02:37:51;99083.56;;;25.92;nan
63715;BME280;49858;48.956;9.076;2023-08-20T02:40:19;99084.78;;;25.66;nan
63715;BME280;49858;48.956;9.076;2023-08-20T02:42:47;99083.03;;;25.43;nan
63715;BME280;49858;48.956;9.076;2023-08-20T02:45:15;99086.81;;;25.78;nan
63715;BME280;49858;48.956;9.076;2023-08-20T02:47:43;99086.31;;;25.54;nan
63715;BME280;49858;48.956;9.076;2023-08-20T02:50:11;99080.72;;;25.92;nan
63715;BME280;49858;48.956;9.076;2023-08-20T02:52:42;99081.75;;;25.98;nan
63715;BME280;49858;48.956;9.076;2023-08-20T02:55:11;99079.28;;;26.00;nan
63715;BME280;49858;48.956;9.076;2023-08-20T02:57:39;99080.09;;;25.34;nan
63715;BME280;49858;48.956;9.076;2023-08-20T03:00:08;99076.25;;;24.69;nan
63715;BME280;49858;48.956;9.076;2023-08-20T03:02:38;99081.44;;;23.33;nan
63715;BME280;49858;48.956;9.076;2023-08-20T03:05:09;99087.44;;;23.35;nan
63715;BME280;49858;48.956;9.076;2023-08-20T03:07:37;99086.22;;;23.16;nan
63715;BME280;49858;48.956;9.076;2023-08-20T03:10:06;99082.66;;;22.73;nan
63715;BME280;49858;48.956;9.076;2023-08-20T03:12:35;99094.19;;;23.18;nan
63715;BME280;49858;48.956;9.076;2023-08-20T03:15:04;99083.72;;;23.94;nan
63715;BME280;49858;48.956;9.076;2023-08-20T03:17:32;99080.59;;;24.41;nan
63715;BME280;49858;48.956;9.076;2023-08-20T03:20:01;99073.19;;;24.93;nan
63715;BME280;49858;48.956;9.076;2023-08-20T03:22:31;99079.63;;;25.22;nan
63715;BME280;49858;48.956;9.076;2023-08-20T03:24:59;99081.41;;;25.16;nan
63715;BME280;49858;48.956;9.076;2023-08-20T03:27:27;99078.53;;;25.04;nan
63715;BME280;49858;48.956;9.076;2023-08-20T03:29:56;99082.13;;;25.04;nan
63715;BME280;49858;48.956;9.076;2023-08-20T03:32:25;99076.22;;;24.86;nan
63715;BME280;49858;48.956;9.076;2023-08-20T03:34:53;99083.97;;;24.65;nan
63715;BME280;49858;48.956;9.076;2023-08-20T03:37:22;99084.34;;;24.96;nan
63715;BME280;49858;48.956;9.076;2023-08-20T03:39:50;99082.06;;;24.30;nan
63715;BME280;49858;48.956;9.076;2023-08-20T03:42:19;99082.56;;;24.73;nan
63715;BME280;49858;48.956;9.076;2023-08-20T03:44:47;99071.91;;;24.81;nan
63715;BME280;49858;48.956;9.076;2023-08-20T03:47:17;99079.97;;;24.66;nan
63715;BME280;49858;48.956;9.076;2023-08-20T03:49:47;99082.88;;;24.92;nan
63715;BME280;49858;48.956;9.076;2023-08-20T03:52:15;99077.84;;;25.29;nan
63715;BME280;49858;48.956;9.076;2023-08-20T03:54:43;99087.91;;;25.42;nan
63715;BME280;49858;48.956;9.076;2023-08-20T03:57:12;99096.47;;;25.52;nan
63715;BME280;49858;48.956;9.076;2023-08-20T03:59:40;99096.25;;;25.71;nan
63715;BME280;49858;48.956;9.076;2023-08-20T04:02:08;99093.00;;;25.60;nan
63715;BME280;49858;48.956;9.076;2023-08-20T04:04:37;99090.44;;;25.79;nan
63715;BME280;49858;48.956;9.076;2023-08-20T04:07:06;99095.97;;;25.95;nan
63715;BME280;49858;48.956;9.076;2023-08-20T04:09:33;99098.69;;;25.98;nan
63715;BME280;49858;48.956;9.076;2023-08-20T04:12:03;99098.09;;;25.78;nan
63715;BME280;49858;48.956;9.076;2023-08-20T04:14:31;99089.09;;;26.09;nan
63715;BME280;49858;48.956;9.076;2023-08-20T04:16:59;99097.53;;;25.96;nan
63715;BME280;49858;48.956;9.076;2023-08-20T04:19:28;99089.66;;;26.04;nan
63715;BME280;49858;48.956;9.076;2023-08-20T04:21:57;99103.72;;;24.94;nan
63715;BME280;49858;48.956;9.076;2023-08-20T04:24:26;99101.09;;;25.45;nan
63715;BME280;49858;48.956;9.076;2023-08-20T04:26:54;99102.91;;;25.65;nan
63715;BME280;49858;48.956;9.076;2023-08-20T04:29:25;99101.38;;;25.89;nan
63715;BME280;49858;48.956;9.076;2023-08-20T04:31:54;99105.44;;;25.76;nan
63715;BME280;49858;48.956;9.076;2023-08-20T04:34:22;99105.16;;;25.57;nan
63715;BME280;49858;48.956;9.076;2023-08-20T04:36:52;99105.84;;;25.61;nan
63715;BME280;49858;48.956;9.076;2023-08-20T04:39:21;99105.41;;;25.21;nan
63715;BME280;49858;48.956;9.076;2023-08-20T04:41:51;99107.25;;;25.28;nan
63715;BME280;49858;48.956;9.076;2023-08-20T04:44:21;99111.94;;;25.02;nan
63715;BME280;49858;48.956;9.076;2023-08-20T04:46:49;99113.09;;;25.04;nan
63715;BME280;49858;48.956;9.076;2023-08-20T04:49:17;99127.63;;;25.32;nan
63715;BME280;49858;48.956;9.076;2023-08-20T04:51:45;99121.09;;;25.06;nan
63715;BME280;49858;48.956;9.076;2023-08-20T04:54:13;99117.72;;;25.40;nan
63715;BME280;49858;48.956;9.076;2023-08-20T04:56:43;99117.94;;;24.58;nan
63715;BME280;49858;48.956;9.076;2023-08-20T04:59:11;99120.88;;;23.46;nan
63715;BME280;49858;48.956;9.076;2023-08-20T05:01:51;99117.56;;;24.07;nan
63715;BME280;49858;48.956;9.076;2023-08-20T05:04:33;99115.81;;;24.62;nan
63715;BME280;49858;48.956;9.076;2023-08-20T05:07:01;99114.38;;;24.87;nan
63715;BME280;49858;48.956;9.076;2023-08-20T05:09:30;99116.22;;;25.22;nan
63715;BME280;49858;48.956;9.076;2023-08-20T05:11:59;99117.25;;;25.29;nan
63715;BME280;49858;48.956;9.076;2023-08-20T05:14:30;99121.59;;;25.46;nan
63715;BME280;49858;48.956;9.076;2023-08-20T05:16:58;99125.44;;;25.52;nan
63715;BME280;49858;48.956;9.076;2023-08-20T05:19:26;99117.63;;;24.85;nan
63715;BME280;49858;48.956;9.076;2023-08-20T05:21:54;99109.69;;;25.26;nan
63715;BME280;49858;48.956;9.076;2023-08-20T05:24:28;99099.72;;;25.50;nan
63715;BME280;49858;48.956;9.076;2023-08-20T05:27:08;99108.41;;;25.68;nan
63715;BME280;49858;48.956;9.076;2023-08-20T05:29:37;99114.91;;;25.82;nan
63715;BME280;49858;48.956;9.076;2023-08-20T05:32:06;99122.09;;;24.37;nan
63715;BME280;49858;48.956;9.076;2023-08-20T05:34:34;99125.91;;;24.60;nan
63715;BME280;49858;48.956;9.076;2023-08-20T05:37:02;99132.53;;;24.37;nan
63715;BME280;49858;48.956;9.076;2023-08-20T05:39:36;99138.75;;;22.96;nan
63715;BME280;49858;48.956;9.076;2023-08-20T05:42:07;99146.84;;;23.34;nan
63715;BME280;49858;48.956;9.076;2023-08-20T05:44:37;99136.09;;;24.21;nan
63715;BME280;49858;48.956;9.076;2023-08-20T05:47:08;99133.19;;;24.73;nan
63715;BME280;49858;48.956;9.076;2023-08-20T05:49:36;99141.31;;;24.39;nan
63715;BME280;49858;48.956;9.076;2023-08-20T05:52:05;99132.72;;;25.08;nan
63715;BME280;49858;48.956;9.076;2023-08-20T05:54:34;99143.06;;;24.49;nan
63715;BME280;49858;48.956;9.076;2023-08-20T05:57:02;99144.31;;;25.39;nan
63715;BME280;49858;48.956;9.076;2023-08-20T05:59:31;99150.28;;;25.83;nan
63715;BME280;49858;48.956;9.076;2023-08-20T06:02:01;99155.75;;;25.73;nan
63715;BME280;49858;48.956;9.076;2023-08-20T06:04:29;99151.78;;;24.02;nan
63715;BME280;49858;48.956;9.076;2023-08-20T06:06:57;99162.22;;;24.54;nan
63715;BME280;49858;48.956;9.076;2023-08-20T06:09:25;99163.31;;;25.22;nan
63715;BME280;49858;48.956;9.076;2023-08-20T06:11:54;99154.34;;;25.82;nan
63715;BME280;49858;48.956;9.076;2023-08-20T06:14:22;99160.94;;;25.62;nan
63715;BME280;49858;48.956;9.076;2023-08-20T06:16:51;99165.31;;;26.18;nan
63715;BME280;49858;48.956;9.076;2023-08-20T06:19:19;99155.13;;;26.71;nan
63715;BME280;49858;48.956;9.076;2023-08-20T06:21:47;99162.63;;;26.27;nan
63715;BME280;49858;48.956;9.076;2023-08-20T06:24:15;99171.84;;;26.28;nan
63715;BME280;49858;48.956;9.076;2023-08-20T06:26:43;99170.63;;;26.41;nan
63715;BME280;49858;48.956;9.076;2023-08-20T06:29:11;99177.72;;;26.20;nan
63715;BME280;49858;48.956;9.076;2023-08-20T06:31:39;99167.13;;;25.99;nan
63715;BME280;49858;48.956;9.076;2023-08-20T06:34:08;99169.72;;;26.57;nan
63715;BME280;49858;48.956;9.076;2023-08-20T06:36:36;99173.59;;;26.85;nan
63715;BME280;49858;48.956;9.076;2023-08-20T06:39:07;99173.88;;;26.65;nan
63715;BME280;49858;48.956;9.076;2023-08-20T06:41:35;99178.72;;;27.25;nan
63715;BME280;49858;48.956;9.076;2023-08-20T06:44:10;99173.59;;;27.55;nan
63715;BME280;49858;48.956;9.076;2023-08-20T06:46:38;99163.47;;;27.88;nan
63715;BME280;49858;48.956;9.076;2023-08-20T06:49:06;99174.28;;;26.89;nan
63715;BME280;49858;48.956;9.076;2023-08-20T06:51:35;99177.94;;;26.39;nan
63715;BME280;49858;48.956;9.076;2023-08-20T06:54:04;99180.22;;;26.18;nan
63715;BME280;49858;48.956;9.076;2023-08-20T06:56:32;99177.22;;;26.86;nan
63715;BME280;49858;48.956;9.076;2023-08-20T06:59:01;99166.63;;;27.68;nan
63715;BME280;49858;48.956;9.076;2023-08-20T07:01:29;99167.16;;;28.07;nan
63715;BME280;49858;48.956;9.076;2023-08-20T07:03:57;99163.84;;;27.56;nan
63715;BME280;49858;48.956;9.076;2023-08-20T07:06:27;99178.06;;;27.65;nan
63715;BME280;49858;48.956;9.076;2023-08-20T07:08:58;99169.97;;;27.54;nan
63715;BME280;49858;48.956;9.076;2023-08-20T07:11:30;99171.19;;;27.09;nan
63715;BME280;49858;48.956;9.076;2023-08-20T07:13:57;99188.44;;;26.00;nan
63715;BME280;49858;48.956;9.076;2023-08-20T07:16:25;99189.22;;;25.88;nan
63715;BME280;49858;48.956;9.076;2023-08-20T07:18:53;99194.13;;;26.98;nan
63715;BME280;49858;48.956;9.076;2023-08-20T07:21:21;99189.81;;;27.07;nan
63715;BME280;49858;48.956;9.076;2023-08-20T07:23:49;99207.69;;;26.02;nan
63715;BME280;49858;48.956;9.076;2023-08-20T07:26:18;99208.53;;;26.66;nan
63715;BME280;49858;48.956;9.076;2023-08-20T07:28:46;99207.38;;;26.89;nan
63715;BME280;49858;48.956;9.076;2023-08-20T07:31:28;99211.09;;;26.35;nan
63715;BME280;49858;48.956;9.076;2023-08-20T07:33:58;99213.28;;;26.31;nan
63715;BME280;49858;48.956;9.076;2023-08-20T07:36:30;99208.06;;;26.16;nan
63715;BME280;49858;48.956;9.076;2023-08-20T07:38:59;99206.28;;;26.22;nan
63715;BME280;49858;48.956;9.076;2023-08-20T07:41:30;99216.06;;;26.18;nan
63715;BME280;49858;48.956;9.076;2023-08-20T07:43:57;99219.06;;;27.00;nan
63715;BME280;49858;48.956;9.076;2023-08-20T07:46:25;99208.09;;;27.93;nan
63715;BME280;49858;48.956;9.076;2023-08-20T07:48:53;99207.78;;;29.21;nan
63715;BME280;49858;48.956;9.076;2023-08-20T07:51:21;99210.41;;;30.50;nan
63715;BME280;49858;48.956;9.076;2023-08-20T07:53:49;99216.50;;;31.15;nan
63715;BME280;49858;48.956;9.076;2023-08-20T07:56:17;99210.72;;;31.87;nan
63715;BME280;49858;48.956;9.076;2023-08-20T07:58:46;99216.16;;;30.98;nan
63715;BME280;49858;48.956;9.076;2023-08-20T08:01:15;99208.72;;;30.67;nan
63715;BME280;49858;48.956;9.076;2023-08-20T08:03:43;99213.72;;;28.46;nan
63715;BME280;49858;48.956;9.076;2023-08-20T08:06:11;99217.19;;;28.50;nan
63715;BME280;49858;48.956;9.076;2023-08-20T08:08:42;99209.78;;;29.94;nan
63715;BME280;49858;48.956;9.076;2023-08-20T08:11:10;99204.63;;;31.01;nan
63715;BME280;49858;48.956;9.076;2023-08-20T08:13:38;99207.38;;;31.88;nan
63715;BME280;49858;48.956;9.076;2023-08-20T08:16:07;99211.47;;;32.61;nan
63715;BME280;49858;48.956;9.076;2023-08-20T08:18:35;99211.09;;;32.24;nan
63715;BME280;49858;48.956;9.076;2023-08-20T08:21:03;99202.91;;;32.61;nan
63715;BME280;49858;48.956;9.076;2023-08-20T08:23:31;99209.81;;;33.51;nan
63715;BME280;49858;48.956;9.076;2023-08-20T08:25:59;99219.09;;;31.90;nan
63715;BME280;49858;48.956;9.076;2023-08-20T08:28:27;99218.44;;;33.36;nan
63715;BME280;49858;48.956;9.076;2023-08-20T08:30:55;99216.22;;;32.70;nan
63715;BME280;49858;48.956;9.076;2023-08-20T08:33:24;99212.94;;;32.92;nan
63715;BME280;49858;48.956;9.076;2023-08-20T08:35:52;99222.00;;;31.18;nan
63715;BME280;49858;48.956;9.076;2023-08-20T08:38:20;99222.84;;;31.10;nan
63715;BME280;49858;48.956;9.076;2023-08-20T08:40:49;99220.13;;;31.78;nan
63715;BME280;49858;48.956;9.076;2023-08-20T08:43:18;99230.13;;;31.35;nan
63715;BME280;49858;48.956;9.076;2023-08-20T08:45:46;99228.44;;;31.04;nan
63715;BME280;49858;48.956;9.076;2023-08-20T08:48:15;99218.88;;;31.94;nan
63715;BME280;49858;48.956;9.076;2023-08-20T08:50:45;99219.44;;;32.77;nan
63715;BME280;49858;48.956;9.076;2023-08-20T08:53:14;99220.88;;;33.23;nan
63715;BME280;49858;48.956;9.076;2023-08-20T08:55:42;99219.94;;;35.04;nan
63715;BME280;49858;48.956;9.076;2023-08-20T08:58:10;99221.84;;;33.61;nan
63715;BME280;49858;48.956;9.076;2023-08-20T09:00:37;99226.03;;;32.19;nan
63715;BME280;49858;48.956;9.076;2023-08-20T09:03:06;99228.19;;;31.17;nan
63715;BME280;49858;48.956;9.076;2023-08-20T09:05:46;99217.66;;;33.15;nan
63715;BME280;49858;48.956;9.076;2023-08-20T09:08:21;99212.78;;;34.14;nan
63715;BME280;49858;48.956;9.076;2023-08-20T09:10:52;99218.03;;;35.39;nan
63715;BME280;49858;48.956;9.076;2023-08-20T09:13:22;99220.53;;;34.08;nan
63715;BME280;49858;48.956;9.076;2023-08-20T09:15:52;99219.50;;;34.11;nan
63715;BME280;49858;48.956;9.076;2023-08-20T09:18:20;99217.38;;;34.69;nan
63715;BME280;49858;48.956;9.076;2023-08-20T09:20:50;99213.00;;;36.55;nan
63715;BME280;49858;48.956;9.076;2023-08-20T09:23:20;99214.47;;;37.01;nan
63715;BME280;49858;48.956;9.076;2023-08-20T09:25:53;99206.91;;;37.03;nan
63715;BME280;49858;48.956;9.076;2023-08-20T09:28:21;99208.50;;;36.99;nan
63715;BME280;49858;48.956;9.076;2023-08-20T09:30:56;99218.50;;;37.33;nan
63715;BME280;49858;48.956;9.076;2023-08-20T09:33:24;99223.59;;;37.05;nan
63715;BME280;49858;48.956;9.076;2023-08-20T09:35:54;99222.25;;;37.12;nan
63715;BME280;49858;48.956;9.076;2023-08-20T09:38:23;99222.03;;;37.04;nan
63715;BME280;49858;48.956;9.076;2023-08-20T09:40:53;99215.63;;;36.47;nan
63715;BME280;49858;48.956;9.076;2023-08-20T09:43:24;99217.19;;;35.32;nan
63715;BME280;49858;48.956;9.076;2023-08-20T09:45:55;99219.16;;;35.80;nan
63715;BME280;49858;48.956;9.076;2023-08-20T09:48:24;99214.47;;;35.66;nan
63715;BME280;49858;48.956;9.076;2023-08-20T09:50:59;99215.88;;;33.85;nan
63715;BME280;49858;48.956;9.076;2023-08-20T09:53:34;99213.41;;;31.66;nan
63715;BME280;49858;48.956;9.076;2023-08-20T09:56:09;99214.00;;;34.71;nan
63715;BME280;49858;48.956;9.076;2023-08-20T09:58:37;99210.66;;;36.48;nan
63715;BME280;49858;48.956;9.076;2023-08-20T10:01:07;99210.66;;;36.31;nan
63715;BME280;49858;48.956;9.076;2023-08-20T10:03:36;99207.53;;;36.34;nan
63715;BME280;49858;48.956;9.076;2023-08-20T10:06:08;99210.91;;;36.67;nan
63715;BME280;49858;48.956;9.076;2023-08-20T10:08:36;99207.53;;;37.43;nan
63715;BME280;49858;48.956;9.076;2023-08-20T10:11:04;99210.66;;;36.48;nan
63715;BME280;49858;48.956;9.076;2023-08-20T10:13:32;99211.53;;;35.44;nan
63715;BME280;49858;48.956;9.076;2023-08-20T10:16:00;99209.09;;;35.96;nan
63715;BME280;49858;48.956;9.076;2023-08-20T10:18:29;99212.44;;;35.07;nan
63715;BME280;49858;48.956;9.076;2023-08-20T10:20:57;99208.84;;;34.75;nan
63715;BME280;49858;48.956;9.076;2023-08-20T10:23:30;99209.59;;;36.62;nan
63715;BME280;49858;48.956;9.076;2023-08-20T10:26:08;99216.22;;;38.15;nan
63715;BME280;49858;48.956;9.076;2023-08-20T10:28:37;99218.72;;;38.59;nan
63715;BME280;49858;48.956;9.076;2023-08-20T10:31:08;99218.78;;;37.30;nan
63715;BME280;49858;48.956;9.076;2023-08-20T10:33:37;99224.03;;;37.20;nan
63715;BME280;49858;48.956;9.076;2023-08-20T10:36:12;99215.88;;;37.94;nan
63715;BME280;49858;48.956;9.076;2023-08-20T10:38:44;99210.16;;;38.54;nan
63715;BME280;49858;48.956;9.076;2023-08-20T10:41:12;99208.34;;;38.21;nan
63715;BME280;49858;48.956;9.076;2023-08-20T10:43:46;99213.75;;;39.09;nan
63715;BME280;49858;48.956;9.076;2023-08-20T10:46:16;99199.75;;;37.85;nan
63715;BME280;49858;48.956;9.076;2023-08-20T10:48:47;99208.50;;;37.57;nan
63715;BME280;49858;48.956;9.076;2023-08-20T10:51:17;99197.63;;;39.25;nan
63715;BME280;49858;48.956;9.076;2023-08-20T10:54:03;99191.63;;;39.23;nan
63715;BME280;49858;48.956;9.076;2023-08-20T10:56:39;99200.50;;;40.00;nan
63715;BME280;49858;48.956;9.076;2023-08-20T10:59:08;99205.06;;;37.64;nan
63715;BME280;49858;48.956;9.076;2023-08-20T11:01:37;99199.75;;;37.79;nan
63715;BME280;49858;48.956;9.076;2023-08-20T11:04:05;99201.38;;;39.20;nan
63715;BME280;49858;48.956;9.076;2023-08-20T11:06:34;99195.47;;;39.69;nan
63715;BME280;49858;48.956;9.076;2023-08-20T11:09:03;99186.47;;;40.69;nan
63715;BME280;49858;48.956;9.076;2023-08-20T11:11:32;99187.59;;;41.79;nan
63715;BME280;49858;48.956;9.076;2023-08-20T11:14:05;99182.22;;;42.67;nan
63715;BME280;49858;48.956;9.076;2023-08-20T11:16:34;99183.63;;;41.69;nan
63715;BME280;49858;48.956;9.076;2023-08-20T11:19:03;99188.28;;;39.56;nan
63715;BME280;49858;48.956;9.076;2023-08-20T11:21:35;99187.94;;;41.15;nan
63715;BME280;49858;48.956;9.076;2023-08-20T11:24:05;99184.19;;;39.08;nan
63715;BME280;49858;48.956;9.076;2023-08-20T11:26:34;99182.00;;;38.96;nan
63715;BME280;49858;48.956;9.076;2023-08-20T11:29:07;99188.06;;;40.24;nan
63715;BME280;49858;48.956;9.076;2023-08-20T11:31:35;99181.72;;;39.18;nan
63715;BME280;49858;48.956;9.076;2023-08-20T11:34:05;99181.78;;;38.69;nan
63715;BME280;49858;48.956;9.076;2023-08-20T11:36:33;99186.19;;;39.57;nan
63715;BME280;49858;48.956;9.076;2023-08-20T11:39:01;99178.28;;;36.70;nan
63715;BME280;49858;48.956;9.076;2023-08-20T11:41:31;99178.72;;;40.18;nan
63715;BME280;49858;48.956;9.076;2023-08-20T11:43:59;99173.31;;;37.51;nan
63715;BME280;49858;48.956;9.076;2023-08-20T11:46:27;99173.81;;;38.26;nan
63715;BME280;49858;48.956;9.076;2023-08-20T11:48:59;99178.16;;;40.52;nan
63715;BME280;49858;48.956;9.076;2023-08-20T11:51:27;99171.94;;;41.14;nan
63715;BME280;49858;48.956;9.076;2023-08-20T11:53:55;99167.94;;;41.99;nan
63715;BME280;49858;48.956;9.076;2023-08-20T11:56:23;99161.91;;;41.76;nan
63715;BME280;49858;48.956;9.076;2023-08-20T11:58:52;99161.28;;;43.10;nan
63715;BME280;49858;48.956;9.076;2023-08-20T12:01:23;99166.03;;;44.26;nan
63715;BME280;49858;48.956;9.076;2023-08-20T12:03:51;99160.78;;;43.35;nan
63715;BME280;49858;48.956;9.076;2023-08-20T12:06:20;99166.28;;;43.10;nan
63715;BME280;49858;48.956;9.076;2023-08-20T12:08:49;99156.72;;;42.94;nan
63715;BME280;49858;48.956;9.076;2023-08-20T12:11:17;99157.31;;;43.96;nan
63715;BME280;49858;48.956;9.076;2023-08-20T12:13:47;99152.44;;;42.59;nan
63715;BME280;49858;48.956;9.076;2023-08-20T12:16:17;99157.75;;;40.90;nan
63715;BME280;49858;48.956;9.076;2023-08-20T12:18:45;99153.47;;;42.98;nan
63715;BME280;49858;48.956;9.076;2023-08-20T12:21:14;99153.84;;;44.20;nan
63715;BME280;49858;48.956;9.076;2023-08-20T12:23:42;99152.22;;;45.03;nan
63715;BME280;49858;48.956;9.076;2023-08-20T12:26:10;99153.97;;;45.47;nan
63715;BME280;49858;48.956;9.076;2023-08-20T12:28:38;99144.84;;;45.83;nan
63715;BME280;49858;48.956;9.076;2023-08-20T12:31:06;99155.19;;;44.34;nan
63715;BME280;49858;48.956;9.076;2023-08-20T12:33:35;99150.63;;;43.05;nan
63715;BME280;49858;48.956;9.076;2023-08-20T12:36:04;99148.09;;;41.61;nan
63715;BME280;49858;48.956;9.076;2023-08-20T12:38:32;99156.53;;;40.98;nan
63715;BME280;49858;48.956;9.076;2023-08-20T12:41:01;99149.13;;;41.84;nan
63715;BME280;49858;48.956;9.076;2023-08-20T12:43:30;99145.88;;;42.87;nan
63715;BME280;49858;48.956;9.076;2023-08-20T12:45:58;99136.00;;;43.62;nan
63715;BME280;49858;48.956;9.076;2023-08-20T12:48:26;99137.63;;;42.99;nan
63715;BME280;49858;48.956;9.076;2023-08-20T12:50:55;99137.56;;;39.53;nan
63715;BME280;49858;48.956;9.076;2023-08-20T12:53:23;99129.78;;;42.00;nan
63715;BME280;49858;48.956;9.076;2023-08-20T12:55:51;99123.22;;;42.70;nan
63715;BME280;49858;48.956;9.076;2023-08-20T12:58:19;99118.03;;;43.12;nan
63715;BME280;49858;48.956;9.076;2023-08-20T13:00:47;99122.41;;;41.92;nan
63715;BME280;49858;48.956;9.076;2023-08-20T13:03:15;99119.13;;;43.02;nan
63715;BME280;49858;48.956;9.076;2023-08-20T13:05:44;99120.81;;;43.33;nan
63715;BME280;49858;48.956;9.076;2023-08-20T13:08:14;99112.03;;;44.54;nan
63715;BME280;49858;48.956;9.076;2023-08-20T13:10:50;99115.06;;;44.94;nan
63715;BME280;49858;48.956;9.076;2023-08-20T13:13:24;99113.16;;;44.81;nan
63715;BME280;49858;48.956;9.076;2023-08-20T13:15:53;99120.66;;;44.92;nan
63715;BME280;49858;48.956;9.076;2023-08-20T13:18:22;99117.94;;;42.32;nan
63715;BME280;49858;48.956;9.076;2023-08-20T13:20:52;99116.69;;;43.73;nan
63715;BME280;49858;48.956;9.076;2023-08-20T13:23:21;99115.94;;;44.03;nan
63715;BME280;49858;48.956;9.076;2023-08-20T13:25:50;99119.22;;;43.99;nan
63715;BME280;49858;48.956;9.076;2023-08-20T13:28:18;99109.75;;;43.99;nan
63715;BME280;49858;48.956;9.076;2023-08-20T13:30:49;99110.34;;;43.97;nan
63715;BME280;49858;48.956;9.076;2023-08-20T13:33:16;99106.06;;;44.52;nan
63715;BME280;49858;48.956;9.076;2023-08-20T13:35:44;99117.28;;;44.32;nan